Time;durP1;ratioP1;P1;durP2;ratioP2;P2;SDS_P1;SDS_P2;PMS_P1;PMS_P2;Temp;Humidity;BMP_temperature;BMP_pressure;BME280_temperature;BME280_humidity;BME280_pressure;Samples;Min_cycle;Max_cycle;Signal;HPM_P1;HPM_P2
2020/11/04 00:00:30;;;;;;;8.95;5.849999;;;;;;;8.86;100;96197.49;;;;
2020/11/04 00:01:31;;;;;;;9.900002;5.4;;;;;;;8.81;100;96210.71;;;;
2020/11/04 00:02:31;;;;;;;9.900002;5.4;;;;;;;8.81;100;96210.71;;;;
2020/11/04 00:03:32;;;;;;;9.900002;5.4;;;;;;;8.81;100;96210.71;;;;
2020/11/04 00:04:32;;;;;;;9.900002;5.4;;;;;;;8.81;100;96210.71;;;;
2020/11/04 00:05:33;;;;;;;9.900002;5.4;;;;;;;8.81;100;96210.71;;;;
2020/11/04 00:06:33;;;;;;;9.900002;5.4;;;;;;;8.81;100;96210.71;;;;
2020/11/04 00:07:34;;;;;;;9.900002;5.4;;;;;;;8.81;100;96210.71;;;;
2020/11/04 00:08:35;;;;;;;9.900002;5.4;;;;;;;8.81;100;96210.71;;;;
2020/11/04 00:09:35;;;;;;;9.900002;5.4;;;;;;;8.81;100;96210.71;;;;
2020/11/04 00:10:35;;;;;;;9.900002;5.4;;;;;;;8.81;100;96210.71;;;;
2020/11/04 00:11:36;;;;;;;10.85;5.95;;;;;;;8.81;100;96214.86;;;;
2020/11/04 00:12:38;;;;;;;10.85;5.95;;;;;;;8.81;100;96214.86;;;;
2020/11/04 00:13:39;;;;;;;10.85;5.95;;;;;;;8.81;100;96214.86;;;;
2020/11/04 00:14:39;;;;;;;10.85;5.95;;;;;;;8.81;100;96214.86;;;;
2020/11/04 00:15:40;;;;;;;10.85;5.95;;;;;;;8.81;100;96214.86;;;;
2020/11/04 00:16:40;;;;;;;10.85;5.95;;;;;;;8.81;100;96214.86;;;;
2020/11/04 00:17:42;;;;;;;10.85;5.95;;;;;;;8.81;100;96214.86;;;;
2020/11/04 00:18:42;;;;;;;10.85;5.95;;;;;;;8.81;100;96214.86;;;;
2020/11/04 00:19:43;;;;;;;10.85;5.95;;;;;;;8.81;100;96214.86;;;;
2020/11/04 00:20:43;;;;;;;10.85;5.95;;;;;;;8.81;100;96214.86;;;;
2020/11/04 00:21:44;;;;;;;10.85;5.95;;;;;;;8.81;100;96214.86;;;;
2020/11/04 00:22:44;;;;;;;4.800001;3.65;;;;;;;8.75;100;96214.73;;;;
2020/11/04 00:23:45;;;;;;;4.800001;3.65;;;;;;;8.75;100;96214.73;;;;
2020/11/04 00:24:46;;;;;;;4.800001;3.65;;;;;;;8.75;100;96214.73;;;;
2020/11/04 00:25:46;;;;;;;4.800001;3.65;;;;;;;8.75;100;96214.73;;;;
2020/11/04 00:26:47;;;;;;;4.800001;3.65;;;;;;;8.75;100;96214.73;;;;
2020/11/04 00:27:47;;;;;;;4.800001;3.65;;;;;;;8.75;100;96214.73;;;;
2020/11/04 00:28:48;;;;;;;4.800001;3.65;;;;;;;8.75;100;96214.73;;;;
2020/11/04 00:29:48;;;;;;;4.800001;3.65;;;;;;;8.75;100;96214.73;;;;
2020/11/04 00:30:49;;;;;;;4.800001;3.65;;;;;;;8.75;100;96214.73;;;;
2020/11/04 00:31:49;;;;;;;4.800001;3.65;;;;;;;8.75;100;96214.73;;;;
2020/11/04 00:32:50;;;;;;;4.800001;3.65;;;;;;;8.75;100;96214.73;;;;
2020/11/04 00:33:50;;;;;;;4.6;3.45;;;;;;;8.69;100;96208.28;;;;
2020/11/04 00:34:51;;;;;;;4.6;3.45;;;;;;;8.69;100;96208.28;;;;
2020/11/04 00:35:52;;;;;;;4.6;3.45;;;;;;;8.69;100;96208.28;;;;
2020/11/04 00:36:52;;;;;;;4.6;3.45;;;;;;;8.69;100;96208.28;;;;
2020/11/04 00:37:53;;;;;;;4.6;3.45;;;;;;;8.69;100;96208.28;;;;
2020/11/04 00:38:53;;;;;;;4.6;3.45;;;;;;;8.69;100;96208.28;;;;
2020/11/04 00:39:54;;;;;;;4.6;3.45;;;;;;;8.69;100;96208.28;;;;
2020/11/04 00:40:54;;;;;;;4.6;3.45;;;;;;;8.69;100;96208.28;;;;
2020/11/04 00:41:55;;;;;;;4.6;3.45;;;;;;;8.69;100;96208.28;;;;
2020/11/04 00:42:55;;;;;;;4.6;3.45;;;;;;;8.69;100;96208.28;;;;
2020/11/04 00:43:56;;;;;;;6.3;3.7;;;;;;;8.56;100;96209.19;;;;
2020/11/04 00:44:56;;;;;;;6.3;3.7;;;;;;;8.56;100;96209.19;;;;
2020/11/04 00:45:57;;;;;;;6.3;3.7;;;;;;;8.56;100;96209.19;;;;
2020/11/04 00:46:57;;;;;;;6.3;3.7;;;;;;;8.56;100;96209.19;;;;
2020/11/04 00:47:58;;;;;;;6.3;3.7;;;;;;;8.56;100;96209.19;;;;
2020/11/04 00:48:58;;;;;;;6.3;3.7;;;;;;;8.56;100;96209.19;;;;
2020/11/04 00:49:59;;;;;;;6.3;3.7;;;;;;;8.56;100;96209.19;;;;
2020/11/04 00:50:59;;;;;;;6.3;3.7;;;;;;;8.56;100;96209.19;;;;
2020/11/04 00:52:00;;;;;;;6.3;3.7;;;;;;;8.56;100;96209.19;;;;
2020/11/04 00:53:01;;;;;;;6.3;3.7;;;;;;;8.56;100;96209.19;;;;
2020/11/04 00:54:01;;;;;;;6.3;3.7;;;;;;;8.56;100;96209.19;;;;
2020/11/04 00:55:02;;;;;;;7.9;3.900001;;;;;;;8.5;100;96210.39;;;;
2020/11/04 00:56:03;;;;;;;7.9;3.900001;;;;;;;8.5;100;96210.39;;;;
2020/11/04 00:57:03;;;;;;;7.9;3.900001;;;;;;;8.5;100;96210.39;;;;
2020/11/04 00:58:04;;;;;;;7.9;3.900001;;;;;;;8.5;100;96210.39;;;;
2020/11/04 00:59:04;;;;;;;7.9;3.900001;;;;;;;8.5;100;96210.39;;;;
2020/11/04 01:00:05;;;;;;;7.9;3.900001;;;;;;;8.5;100;96210.39;;;;
2020/11/04 01:01:06;;;;;;;7.9;3.900001;;;;;;;8.5;100;96210.39;;;;
2020/11/04 01:02:07;;;;;;;7.9;3.900001;;;;;;;8.5;100;96210.39;;;;
2020/11/04 01:03:08;;;;;;;7.9;3.900001;;;;;;;8.5;100;96210.39;;;;
2020/11/04 01:04:08;;;;;;;7.9;3.900001;;;;;;;8.5;100;96210.39;;;;
2020/11/04 01:05:09;;;;;;;8.3;3.95;;;;;;;8.43;100;96215.42;;;;
2020/11/04 01:06:10;;;;;;;8.3;3.95;;;;;;;8.43;100;96215.42;;;;
2020/11/04 01:07:10;;;;;;;8.3;3.95;;;;;;;8.43;100;96215.42;;;;
2020/11/04 01:08:11;;;;;;;8.3;3.95;;;;;;;8.43;100;96215.42;;;;
2020/11/04 01:09:12;;;;;;;8.3;3.95;;;;;;;8.43;100;96215.42;;;;
2020/11/04 01:10:12;;;;;;;8.3;3.95;;;;;;;8.43;100;96215.42;;;;
2020/11/04 01:11:13;;;;;;;8.3;3.95;;;;;;;8.43;100;96215.42;;;;
2020/11/04 01:12:13;;;;;;;8.3;3.95;;;;;;;8.43;100;96215.42;;;;
2020/11/04 01:13:14;;;;;;;8.3;3.95;;;;;;;8.43;100;96215.42;;;;
2020/11/04 01:14:14;;;;;;;8.3;3.95;;;;;;;8.43;100;96215.42;;;;
2020/11/04 01:15:15;;;;;;;8.3;3.95;;;;;;;8.43;100;96215.42;;;;
2020/11/04 01:16:16;;;;;;;5.800001;3.8;;;;;;;8.45;100;96225.9;;;;
2020/11/04 01:17:18;;;;;;;5.800001;3.8;;;;;;;8.45;100;96225.9;;;;
2020/11/04 01:18:18;;;;;;;5.800001;3.8;;;;;;;8.45;100;96225.9;;;;
2020/11/04 01:19:19;;;;;;;5.800001;3.8;;;;;;;8.45;100;96225.9;;;;
2020/11/04 01:20:19;;;;;;;5.800001;3.8;;;;;;;8.45;100;96225.9;;;;
2020/11/04 01:21:20;;;;;;;5.800001;3.8;;;;;;;8.45;100;96225.9;;;;
2020/11/04 01:22:21;;;;;;;5.800001;3.8;;;;;;;8.45;100;96225.9;;;;
2020/11/04 01:23:21;;;;;;;5.800001;3.8;;;;;;;8.45;100;96225.9;;;;
2020/11/04 01:24:21;;;;;;;5.800001;3.8;;;;;;;8.45;100;96225.9;;;;
2020/11/04 01:25:22;;;;;;;5.800001;3.8;;;;;;;8.45;100;96225.9;;;;
2020/11/04 01:26:22;;;;;;;3.95;3.5;;;;;;;8.42;100;96225.78;;;;
2020/11/04 01:27:23;;;;;;;3.95;3.5;;;;;;;8.42;100;96225.78;;;;
2020/11/04 01:28:24;;;;;;;3.95;3.5;;;;;;;8.42;100;96225.78;;;;
2020/11/04 01:29:24;;;;;;;3.95;3.5;;;;;;;8.42;100;96225.78;;;;
2020/11/04 01:30:25;;;;;;;3.95;3.5;;;;;;;8.42;100;96225.78;;;;
2020/11/04 01:31:26;;;;;;;3.95;3.5;;;;;;;8.42;100;96225.78;;;;
2020/11/04 01:32:26;;;;;;;3.95;3.5;;;;;;;8.42;100;96225.78;;;;
2020/11/04 01:33:27;;;;;;;3.95;3.5;;;;;;;8.42;100;96225.78;;;;
2020/11/04 01:34:27;;;;;;;3.95;3.5;;;;;;;8.42;100;96225.78;;;;
2020/11/04 01:35:28;;;;;;;3.95;3.5;;;;;;;8.42;100;96225.78;;;;
2020/11/04 01:36:28;;;;;;;3.95;3.5;;;;;;;8.42;100;96225.78;;;;
2020/11/04 01:37:29;;;;;;;4.9;3.65;;;;;;;8.47;100;96229.74;;;;
2020/11/04 01:38:29;;;;;;;4.9;3.65;;;;;;;8.47;100;96229.74;;;;
2020/11/04 01:39:30;;;;;;;4.9;3.65;;;;;;;8.47;100;96229.74;;;;
2020/11/04 01:40:30;;;;;;;4.9;3.65;;;;;;;8.47;100;96229.74;;;;
2020/11/04 01:41:31;;;;;;;4.9;3.65;;;;;;;8.47;100;96229.74;;;;
2020/11/04 01:42:31;;;;;;;4.9;3.65;;;;;;;8.47;100;96229.74;;;;
2020/11/04 01:43:32;;;;;;;4.9;3.65;;;;;;;8.47;100;96229.74;;;;
2020/11/04 01:44:32;;;;;;;4.9;3.65;;;;;;;8.47;100;96229.74;;;;
2020/11/04 01:45:33;;;;;;;4.9;3.65;;;;;;;8.47;100;96229.74;;;;
2020/11/04 01:46:34;;;;;;;4.9;3.65;;;;;;;8.47;100;96229.74;;;;
2020/11/04 01:47:34;;;;;;;8.100002;4.2;;;;;;;8.44;100;96233.22;;;;
2020/11/04 01:48:35;;;;;;;8.100002;4.2;;;;;;;8.44;100;96233.22;;;;
2020/11/04 01:49:35;;;;;;;8.100002;4.2;;;;;;;8.44;100;96233.22;;;;
2020/11/04 01:50:36;;;;;;;8.100002;4.2;;;;;;;8.44;100;96233.22;;;;
2020/11/04 01:51:36;;;;;;;8.100002;4.2;;;;;;;8.44;100;96233.22;;;;
2020/11/04 01:52:37;;;;;;;8.100002;4.2;;;;;;;8.44;100;96233.22;;;;
2020/11/04 01:53:44;;;;;;;8.100002;4.2;;;;;;;8.44;100;96233.22;;;;
2020/11/04 01:54:44;;;;;;;8.100002;4.2;;;;;;;8.44;100;96233.22;;;;
2020/11/04 01:55:45;;;;;;;8.100002;4.2;;;;;;;8.44;100;96233.22;;;;
2020/11/04 01:56:45;;;;;;;8.100002;4.2;;;;;;;8.44;100;96233.22;;;;
2020/11/04 01:57:46;;;;;;;8.100002;4.2;;;;;;;8.44;100;96233.22;;;;
2020/11/04 01:58:47;;;;;;;6.1;3.95;;;;;;;8.44;100;96227.75;;;;
2020/11/04 01:59:48;;;;;;;6.1;3.95;;;;;;;8.44;100;96227.75;;;;
2020/11/04 02:00:48;;;;;;;6.1;3.95;;;;;;;8.44;100;96227.75;;;;
2020/11/04 02:01:49;;;;;;;6.1;3.95;;;;;;;8.44;100;96227.75;;;;
2020/11/04 02:02:51;;;;;;;6.1;3.95;;;;;;;8.44;100;96227.75;;;;
2020/11/04 02:03:54;;;;;;;6.1;3.95;;;;;;;8.44;100;96227.75;;;;
2020/11/04 02:04:55;;;;;;;6.1;3.95;;;;;;;8.44;100;96227.75;;;;
2020/11/04 02:05:56;;;;;;;6.1;3.95;;;;;;;8.44;100;96227.75;;;;
2020/11/04 02:06:56;;;;;;;6.1;3.95;;;;;;;8.44;100;96227.75;;;;
2020/11/04 02:07:57;;;;;;;6.1;3.95;;;;;;;8.44;100;96227.75;;;;
2020/11/04 02:08:59;;;;;;;6.55;4.55;;;;;;;8.41;100;96239.85;;;;
2020/11/04 02:10:00;;;;;;;6.55;4.55;;;;;;;8.41;100;96239.85;;;;
2020/11/04 02:11:00;;;;;;;6.55;4.55;;;;;;;8.41;100;96239.85;;;;
2020/11/04 02:12:01;;;;;;;6.55;4.55;;;;;;;8.41;100;96239.85;;;;
2020/11/04 02:13:03;;;;;;;6.55;4.55;;;;;;;8.41;100;96239.85;;;;
2020/11/04 02:14:04;;;;;;;6.55;4.55;;;;;;;8.41;100;96239.85;;;;
2020/11/04 02:15:04;;;;;;;6.55;4.55;;;;;;;8.41;100;96239.85;;;;
2020/11/04 02:16:05;;;;;;;6.55;4.55;;;;;;;8.41;100;96239.85;;;;
2020/11/04 02:17:05;;;;;;;6.55;4.55;;;;;;;8.41;100;96239.85;;;;
2020/11/04 02:18:06;;;;;;;6.55;4.55;;;;;;;8.41;100;96239.85;;;;
2020/11/04 02:19:07;;;;;;;6.55;4.55;;;;;;;8.41;100;96239.85;;;;
2020/11/04 02:20:07;;;;;;;6.45;3.750001;;;;;;;8.41;100;96235.39;;;;
2020/11/04 02:21:08;;;;;;;6.45;3.750001;;;;;;;8.41;100;96235.39;;;;
2020/11/04 02:22:09;;;;;;;6.45;3.750001;;;;;;;8.41;100;96235.39;;;;
2020/11/04 02:23:09;;;;;;;6.45;3.750001;;;;;;;8.41;100;96235.39;;;;
2020/11/04 02:24:10;;;;;;;6.45;3.750001;;;;;;;8.41;100;96235.39;;;;
2020/11/04 02:25:10;;;;;;;6.45;3.750001;;;;;;;8.41;100;96235.39;;;;
2020/11/04 02:26:11;;;;;;;6.45;3.750001;;;;;;;8.41;100;96235.39;;;;
2020/11/04 02:27:12;;;;;;;6.45;3.750001;;;;;;;8.41;100;96235.39;;;;
2020/11/04 02:28:12;;;;;;;6.45;3.750001;;;;;;;8.41;100;96235.39;;;;
2020/11/04 02:29:13;;;;;;;6.45;3.750001;;;;;;;8.41;100;96235.39;;;;
2020/11/04 02:30:13;;;;;;;6.45;4.4;;;;;;;8.37;100;96228.23;;;;
2020/11/04 02:31:14;;;;;;;6.45;4.4;;;;;;;8.37;100;96228.23;;;;
2020/11/04 02:32:15;;;;;;;6.45;4.4;;;;;;;8.37;100;96228.23;;;;
2020/11/04 02:33:15;;;;;;;6.45;4.4;;;;;;;8.37;100;96228.23;;;;
2020/11/04 02:34:16;;;;;;;6.45;4.4;;;;;;;8.37;100;96228.23;;;;
2020/11/04 02:35:17;;;;;;;6.45;4.4;;;;;;;8.37;100;96228.23;;;;
2020/11/04 02:36:19;;;;;;;6.45;4.4;;;;;;;8.37;100;96228.23;;;;
2020/11/04 02:37:20;;;;;;;6.45;4.4;;;;;;;8.37;100;96228.23;;;;
2020/11/04 02:38:20;;;;;;;6.45;4.4;;;;;;;8.37;100;96228.23;;;;
2020/11/04 02:39:21;;;;;;;6.45;4.4;;;;;;;8.37;100;96228.23;;;;
2020/11/04 02:40:21;;;;;;;6.45;4.4;;;;;;;8.37;100;96228.23;;;;
2020/11/04 02:41:22;;;;;;;6.2;4.15;;;;;;;8.4;100;96238.59;;;;
2020/11/04 02:42:23;;;;;;;6.2;4.15;;;;;;;8.4;100;96238.59;;;;
2020/11/04 02:43:23;;;;;;;6.2;4.15;;;;;;;8.4;100;96238.59;;;;
2020/11/04 02:44:24;;;;;;;6.2;4.15;;;;;;;8.4;100;96238.59;;;;
2020/11/04 02:45:24;;;;;;;6.2;4.15;;;;;;;8.4;100;96238.59;;;;
2020/11/04 02:46:25;;;;;;;6.2;4.15;;;;;;;8.4;100;96238.59;;;;
2020/11/04 02:47:26;;;;;;;6.2;4.15;;;;;;;8.4;100;96238.59;;;;
2020/11/04 02:48:26;;;;;;;6.2;4.15;;;;;;;8.4;100;96238.59;;;;
2020/11/04 02:49:27;;;;;;;6.2;4.15;;;;;;;8.4;100;96238.59;;;;
2020/11/04 02:50:27;;;;;;;6.2;4.15;;;;;;;8.4;100;96238.59;;;;
2020/11/04 02:51:28;;;;;;;6.2;4.15;;;;;;;8.4;100;96238.59;;;;
2020/11/04 02:52:28;;;;;;;4.85;4.1;;;;;;;8.38;100;96237.95;;;;
2020/11/04 02:53:29;;;;;;;4.85;4.1;;;;;;;8.38;100;96237.95;;;;
2020/11/04 02:54:29;;;;;;;4.85;4.1;;;;;;;8.38;100;96237.95;;;;
2020/11/04 02:55:30;;;;;;;4.85;4.1;;;;;;;8.38;100;96237.95;;;;
2020/11/04 02:56:30;;;;;;;4.85;4.1;;;;;;;8.38;100;96237.95;;;;
2020/11/04 02:57:31;;;;;;;4.85;4.1;;;;;;;8.38;100;96237.95;;;;
2020/11/04 02:58:31;;;;;;;4.85;4.1;;;;;;;8.38;100;96237.95;;;;
2020/11/04 02:59:32;;;;;;;4.85;4.1;;;;;;;8.38;100;96237.95;;;;
2020/11/04 03:00:32;;;;;;;4.85;4.1;;;;;;;8.38;100;96237.95;;;;
2020/11/04 03:01:33;;;;;;;4.85;4.1;;;;;;;8.38;100;96237.95;;;;
2020/11/04 03:02:33;;;;;;;7.5;5;;;;;;;8.42;100;96232.08;;;;
2020/11/04 03:03:34;;;;;;;7.5;5;;;;;;;8.42;100;96232.08;;;;
2020/11/04 03:04:34;;;;;;;7.5;5;;;;;;;8.42;100;96232.08;;;;
2020/11/04 03:05:35;;;;;;;7.5;5;;;;;;;8.42;100;96232.08;;;;
2020/11/04 03:06:35;;;;;;;7.5;5;;;;;;;8.42;100;96232.08;;;;
2020/11/04 03:07:36;;;;;;;7.5;5;;;;;;;8.42;100;96232.08;;;;
2020/11/04 03:08:37;;;;;;;7.5;5;;;;;;;8.42;100;96232.08;;;;
2020/11/04 03:09:37;;;;;;;7.5;5;;;;;;;8.42;100;96232.08;;;;
2020/11/04 03:10:38;;;;;;;7.5;5;;;;;;;8.42;100;96232.08;;;;
2020/11/04 03:11:38;;;;;;;7.5;5;;;;;;;8.42;100;96232.08;;;;
2020/11/04 03:12:39;;;;;;;7.5;5;;;;;;;8.42;100;96232.08;;;;
2020/11/04 03:13:39;;;;;;;8;5;;;;;;;8.37;100;96245.73;;;;
2020/11/04 03:14:40;;;;;;;8;5;;;;;;;8.37;100;96245.73;;;;
2020/11/04 03:15:40;;;;;;;8;5;;;;;;;8.37;100;96245.73;;;;
2020/11/04 03:16:41;;;;;;;8;5;;;;;;;8.37;100;96245.73;;;;
2020/11/04 03:17:41;;;;;;;8;5;;;;;;;8.37;100;96245.73;;;;
2020/11/04 03:18:42;;;;;;;8;5;;;;;;;8.37;100;96245.73;;;;
2020/11/04 03:19:42;;;;;;;8;5;;;;;;;8.37;100;96245.73;;;;
2020/11/04 03:20:43;;;;;;;8;5;;;;;;;8.37;100;96245.73;;;;
2020/11/04 03:21:43;;;;;;;8;5;;;;;;;8.37;100;96245.73;;;;
2020/11/04 03:22:44;;;;;;;8;5;;;;;;;8.37;100;96245.73;;;;
2020/11/04 03:23:44;;;;;;;7.2;5.1;;;;;;;8.4;100;96235.1;;;;
2020/11/04 03:24:45;;;;;;;7.2;5.1;;;;;;;8.4;100;96235.1;;;;
2020/11/04 03:25:46;;;;;;;7.2;5.1;;;;;;;8.4;100;96235.1;;;;
2020/11/04 03:26:46;;;;;;;7.2;5.1;;;;;;;8.4;100;96235.1;;;;
2020/11/04 03:27:47;;;;;;;7.2;5.1;;;;;;;8.4;100;96235.1;;;;
2020/11/04 03:28:47;;;;;;;7.2;5.1;;;;;;;8.4;100;96235.1;;;;
2020/11/04 03:29:48;;;;;;;7.2;5.1;;;;;;;8.4;100;96235.1;;;;
2020/11/04 03:30:48;;;;;;;7.2;5.1;;;;;;;8.4;100;96235.1;;;;
2020/11/04 03:31:49;;;;;;;7.2;5.1;;;;;;;8.4;100;96235.1;;;;
2020/11/04 03:32:50;;;;;;;7.2;5.1;;;;;;;8.4;100;96235.1;;;;
2020/11/04 03:33:50;;;;;;;7.2;5.1;;;;;;;8.4;100;96235.1;;;;
2020/11/04 03:34:51;;;;;;;4.95;3.9;;;;;;;8.35;100;96237.02;;;;
2020/11/04 03:35:51;;;;;;;4.95;3.9;;;;;;;8.35;100;96237.02;;;;
2020/11/04 03:36:52;;;;;;;4.95;3.9;;;;;;;8.35;100;96237.02;;;;
2020/11/04 03:37:52;;;;;;;4.95;3.9;;;;;;;8.35;100;96237.02;;;;
2020/11/04 03:38:53;;;;;;;4.95;3.9;;;;;;;8.35;100;96237.02;;;;
2020/11/04 03:39:53;;;;;;;4.95;3.9;;;;;;;8.35;100;96237.02;;;;
2020/11/04 03:40:54;;;;;;;4.95;3.9;;;;;;;8.35;100;96237.02;;;;
2020/11/04 03:41:54;;;;;;;4.95;3.9;;;;;;;8.35;100;96237.02;;;;
2020/11/04 03:42:55;;;;;;;4.95;3.9;;;;;;;8.35;100;96237.02;;;;
2020/11/04 03:43:56;;;;;;;4.95;3.9;;;;;;;8.35;100;96237.02;;;;
2020/11/04 03:44:56;;;;;;;8.249999;4.55;;;;;;;8.36;100;96240.01;;;;
2020/11/04 03:45:57;;;;;;;8.249999;4.55;;;;;;;8.36;100;96240.01;;;;
2020/11/04 03:46:57;;;;;;;8.249999;4.55;;;;;;;8.36;100;96240.01;;;;
2020/11/04 03:47:58;;;;;;;8.249999;4.55;;;;;;;8.36;100;96240.01;;;;
2020/11/04 03:48:59;;;;;;;8.249999;4.55;;;;;;;8.36;100;96240.01;;;;
2020/11/04 03:50:00;;;;;;;8.249999;4.55;;;;;;;8.36;100;96240.01;;;;
2020/11/04 03:51:00;;;;;;;8.249999;4.55;;;;;;;8.36;100;96240.01;;;;
2020/11/04 03:52:01;;;;;;;8.249999;4.55;;;;;;;8.36;100;96240.01;;;;
2020/11/04 03:53:02;;;;;;;8.249999;4.55;;;;;;;8.36;100;96240.01;;;;
2020/11/04 03:54:02;;;;;;;8.249999;4.55;;;;;;;8.36;100;96240.01;;;;
2020/11/04 03:55:03;;;;;;;8.249999;4.55;;;;;;;8.36;100;96240.01;;;;
2020/11/04 03:56:04;;;;;;;6.550001;4.400001;;;;;;;8.3;100;96241.75;;;;
2020/11/04 03:57:05;;;;;;;6.550001;4.400001;;;;;;;8.3;100;96241.75;;;;
2020/11/04 03:58:05;;;;;;;6.550001;4.400001;;;;;;;8.3;100;96241.75;;;;
2020/11/04 03:59:06;;;;;;;6.550001;4.400001;;;;;;;8.3;100;96241.75;;;;
2020/11/04 04:00:07;;;;;;;6.550001;4.400001;;;;;;;8.3;100;96241.75;;;;
2020/11/04 04:01:07;;;;;;;6.550001;4.400001;;;;;;;8.3;100;96241.75;;;;
2020/11/04 04:02:19;;;;;;;6.550001;4.400001;;;;;;;8.3;100;96241.75;;;;
2020/11/04 04:03:19;;;;;;;6.550001;4.400001;;;;;;;8.3;100;96241.75;;;;
2020/11/04 04:04:20;;;;;;;6.550001;4.400001;;;;;;;8.3;100;96241.75;;;;
2020/11/04 04:05:20;;;;;;;6.550001;4.400001;;;;;;;8.3;100;96241.75;;;;
2020/11/04 04:06:21;;;;;;;6.300001;4.950001;;;;;;;8.31;100;96236.67;;;;
2020/11/04 04:07:21;;;;;;;6.300001;4.950001;;;;;;;8.31;100;96236.67;;;;
2020/11/04 04:08:22;;;;;;;6.300001;4.950001;;;;;;;8.31;100;96236.67;;;;
2020/11/04 04:09:22;;;;;;;6.300001;4.950001;;;;;;;8.31;100;96236.67;;;;
2020/11/04 04:10:23;;;;;;;6.300001;4.950001;;;;;;;8.31;100;96236.67;;;;
2020/11/04 04:11:23;;;;;;;6.300001;4.950001;;;;;;;8.31;100;96236.67;;;;
2020/11/04 04:12:24;;;;;;;6.300001;4.950001;;;;;;;8.31;100;96236.67;;;;
2020/11/04 04:13:24;;;;;;;6.300001;4.950001;;;;;;;8.31;100;96236.67;;;;
2020/11/04 04:14:25;;;;;;;6.300001;4.950001;;;;;;;8.31;100;96236.67;;;;
2020/11/04 04:15:26;;;;;;;6.300001;4.950001;;;;;;;8.31;100;96236.67;;;;
2020/11/04 04:16:26;;;;;;;6.300001;4.950001;;;;;;;8.31;100;96236.67;;;;
2020/11/04 04:17:27;;;;;;;7.3;4.75;;;;;;;8.27;100;96239.97;;;;
2020/11/04 04:18:27;;;;;;;7.3;4.75;;;;;;;8.27;100;96239.97;;;;
2020/11/04 04:19:28;;;;;;;7.3;4.75;;;;;;;8.27;100;96239.97;;;;
2020/11/04 04:20:28;;;;;;;7.3;4.75;;;;;;;8.27;100;96239.97;;;;
2020/11/04 04:21:29;;;;;;;7.3;4.75;;;;;;;8.27;100;96239.97;;;;
2020/11/04 04:22:29;;;;;;;7.3;4.75;;;;;;;8.27;100;96239.97;;;;
2020/11/04 04:23:30;;;;;;;7.3;4.75;;;;;;;8.27;100;96239.97;;;;
2020/11/04 04:24:31;;;;;;;7.3;4.75;;;;;;;8.27;100;96239.97;;;;
2020/11/04 04:25:32;;;;;;;7.3;4.75;;;;;;;8.27;100;96239.97;;;;
2020/11/04 04:26:33;;;;;;;7.3;4.75;;;;;;;8.27;100;96239.97;;;;
2020/11/04 04:27:33;;;;;;;7.3;4.75;;;;;;;8.27;100;96239.97;;;;
2020/11/04 04:28:34;;;;;;;10.3;5.599999;;;;;;;8.3;100;96248.07;;;;
2020/11/04 04:29:35;;;;;;;10.3;5.599999;;;;;;;8.3;100;96248.07;;;;
2020/11/04 04:30:35;;;;;;;10.3;5.599999;;;;;;;8.3;100;96248.07;;;;
2020/11/04 04:31:35;;;;;;;10.3;5.599999;;;;;;;8.3;100;96248.07;;;;
2020/11/04 04:32:37;;;;;;;10.3;5.599999;;;;;;;8.3;100;96248.07;;;;
2020/11/04 04:33:37;;;;;;;10.3;5.599999;;;;;;;8.3;100;96248.07;;;;
2020/11/04 04:34:38;;;;;;;10.3;5.599999;;;;;;;8.3;100;96248.07;;;;
2020/11/04 04:35:38;;;;;;;10.3;5.599999;;;;;;;8.3;100;96248.07;;;;
2020/11/04 04:36:39;;;;;;;10.3;5.599999;;;;;;;8.3;100;96248.07;;;;
2020/11/04 04:37:39;;;;;;;10.3;5.599999;;;;;;;8.3;100;96248.07;;;;
2020/11/04 04:38:40;;;;;;;9.550001;5.849999;;;;;;;8.28;100;96247.85;;;;
2020/11/04 04:39:40;;;;;;;9.550001;5.849999;;;;;;;8.28;100;96247.85;;;;
2020/11/04 04:40:41;;;;;;;9.550001;5.849999;;;;;;;8.28;100;96247.85;;;;
2020/11/04 04:41:42;;;;;;;9.550001;5.849999;;;;;;;8.28;100;96247.85;;;;
2020/11/04 04:42:44;;;;;;;9.550001;5.849999;;;;;;;8.28;100;96247.85;;;;
2020/11/04 04:43:44;;;;;;;9.550001;5.849999;;;;;;;8.28;100;96247.85;;;;
2020/11/04 04:44:46;;;;;;;9.550001;5.849999;;;;;;;8.28;100;96247.85;;;;
2020/11/04 04:45:46;;;;;;;9.550001;5.849999;;;;;;;8.28;100;96247.85;;;;
2020/11/04 04:46:47;;;;;;;9.550001;5.849999;;;;;;;8.28;100;96247.85;;;;
2020/11/04 04:47:49;;;;;;;9.550001;5.849999;;;;;;;8.28;100;96247.85;;;;
2020/11/04 04:48:52;;;;;;;9.550001;5.849999;;;;;;;8.28;100;96247.85;;;;
2020/11/04 04:49:54;;;;;;;8.750001;5.75;;;;;;;8.33;100;96247.66;;;;
2020/11/04 04:50:56;;;;;;;8.750001;5.75;;;;;;;8.33;100;96247.66;;;;
2020/11/04 04:51:57;;;;;;;8.750001;5.75;;;;;;;8.33;100;96247.66;;;;
2020/11/04 04:53:02;;;;;;;8.750001;5.75;;;;;;;8.33;100;96247.66;;;;
2020/11/04 04:54:04;;;;;;;8.750001;5.75;;;;;;;8.33;100;96247.66;;;;
2020/11/04 04:55:06;;;;;;;8.750001;5.75;;;;;;;8.33;100;96247.66;;;;
2020/11/04 04:56:06;;;;;;;8.750001;5.75;;;;;;;8.33;100;96247.66;;;;
2020/11/04 04:57:07;;;;;;;8.750001;5.75;;;;;;;8.33;100;96247.66;;;;
2020/11/04 04:58:07;;;;;;;8.750001;5.75;;;;;;;8.33;100;96247.66;;;;
2020/11/04 04:59:08;;;;;;;8.750001;5.75;;;;;;;8.33;100;96247.66;;;;
2020/11/04 05:00:10;;;;;;;9.450001;5.849999;;;;;;;8.32;100;96249.11;;;;
2020/11/04 05:01:10;;;;;;;9.450001;5.849999;;;;;;;8.32;100;96249.11;;;;
2020/11/04 05:02:18;;;;;;;9.450001;5.849999;;;;;;;8.32;100;96249.11;;;;
2020/11/04 05:03:19;;;;;;;9.450001;5.849999;;;;;;;8.32;100;96249.11;;;;
2020/11/04 05:04:26;;;;;;;9.450001;5.849999;;;;;;;8.32;100;96249.11;;;;
2020/11/04 05:05:27;;;;;;;9.450001;5.849999;;;;;;;8.32;100;96249.11;;;;
2020/11/04 05:06:33;;;;;;;9.450001;5.849999;;;;;;;8.32;100;96249.11;;;;
2020/11/04 05:07:42;;;;;;;9.450001;5.849999;;;;;;;8.32;100;96249.11;;;;
2020/11/04 05:08:43;;;;;;;9.450001;5.849999;;;;;;;8.32;100;96249.11;;;;
2020/11/04 05:09:47;;;;;;;9.450001;5.849999;;;;;;;8.32;100;96249.11;;;;
2020/11/04 05:10:47;;;;;;;10.8;6.299999;;;;;;;8.38;100;96245.22;;;;
2020/11/04 05:11:48;;;;;;;10.8;6.299999;;;;;;;8.38;100;96245.22;;;;
2020/11/04 05:12:50;;;;;;;10.8;6.299999;;;;;;;8.38;100;96245.22;;;;
2020/11/04 05:13:51;;;;;;;10.8;6.299999;;;;;;;8.38;100;96245.22;;;;
2020/11/04 05:14:52;;;;;;;10.8;6.299999;;;;;;;8.38;100;96245.22;;;;
2020/11/04 05:15:53;;;;;;;10.8;6.299999;;;;;;;8.38;100;96245.22;;;;
2020/11/04 05:16:58;;;;;;;10.8;6.299999;;;;;;;8.38;100;96245.22;;;;
2020/11/04 05:17:59;;;;;;;10.8;6.299999;;;;;;;8.38;100;96245.22;;;;
2020/11/04 05:19:08;;;;;;;10.8;6.299999;;;;;;;8.38;100;96245.22;;;;
2020/11/04 05:20:08;;;;;;;10.8;6.299999;;;;;;;8.38;100;96245.22;;;;
2020/11/04 05:21:09;;;;;;;11.1;6.199999;;;;;;;8.36;100;96251.31;;;;
2020/11/04 05:22:12;;;;;;;11.1;6.199999;;;;;;;8.36;100;96251.31;;;;
2020/11/04 05:23:14;;;;;;;11.1;6.199999;;;;;;;8.36;100;96251.31;;;;
2020/11/04 05:24:21;;;;;;;11.1;6.199999;;;;;;;8.36;100;96251.31;;;;
2020/11/04 05:25:22;;;;;;;11.1;6.199999;;;;;;;8.36;100;96251.31;;;;
2020/11/04 05:26:23;;;;;;;11.1;6.199999;;;;;;;8.36;100;96251.31;;;;
2020/11/04 05:27:23;;;;;;;11.1;6.199999;;;;;;;8.36;100;96251.31;;;;
2020/11/04 05:28:24;;;;;;;11.1;6.199999;;;;;;;8.36;100;96251.31;;;;
2020/11/04 05:29:24;;;;;;;11.1;6.199999;;;;;;;8.36;100;96251.31;;;;
2020/11/04 05:30:28;;;;;;;11.1;6.199999;;;;;;;8.36;100;96251.31;;;;
2020/11/04 05:31:29;;;;;;;11.1;6.199999;;;;;;;8.36;100;96251.31;;;;
2020/11/04 05:32:30;;;;;;;8.849999;5.95;;;;;;;8.39;100;96263.44;;;;
2020/11/04 05:33:30;;;;;;;8.849999;5.95;;;;;;;8.39;100;96263.44;;;;
2020/11/04 05:34:31;;;;;;;8.849999;5.95;;;;;;;8.39;100;96263.44;;;;
2020/11/04 05:35:33;;;;;;;8.849999;5.95;;;;;;;8.39;100;96263.44;;;;
2020/11/04 05:36:34;;;;;;;8.849999;5.95;;;;;;;8.39;100;96263.44;;;;
2020/11/04 05:37:36;;;;;;;8.849999;5.95;;;;;;;8.39;100;96263.44;;;;
2020/11/04 05:38:37;;;;;;;8.849999;5.95;;;;;;;8.39;100;96263.44;;;;
2020/11/04 05:39:40;;;;;;;8.849999;5.95;;;;;;;8.39;100;96263.44;;;;
2020/11/04 05:40:41;;;;;;;8.849999;5.95;;;;;;;8.39;100;96263.44;;;;
2020/11/04 05:41:42;;;;;;;8.849999;5.95;;;;;;;8.39;100;96263.44;;;;
2020/11/04 05:42:44;;;;;;;8.6;6.45;;;;;;;8.38;100;96254.64;;;;
2020/11/04 05:43:45;;;;;;;8.6;6.45;;;;;;;8.38;100;96254.64;;;;
2020/11/04 05:44:46;;;;;;;8.6;6.45;;;;;;;8.38;100;96254.64;;;;
2020/11/04 05:45:47;;;;;;;8.6;6.45;;;;;;;8.38;100;96254.64;;;;
2020/11/04 05:46:47;;;;;;;8.6;6.45;;;;;;;8.38;100;96254.64;;;;
2020/11/04 05:47:50;;;;;;;8.6;6.45;;;;;;;8.38;100;96254.64;;;;
2020/11/04 05:48:52;;;;;;;8.6;6.45;;;;;;;8.38;100;96254.64;;;;
2020/11/04 05:49:53;;;;;;;8.6;6.45;;;;;;;8.38;100;96254.64;;;;
2020/11/04 05:50:54;;;;;;;8.6;6.45;;;;;;;8.38;100;96254.64;;;;
2020/11/04 05:51:56;;;;;;;8.6;6.45;;;;;;;8.38;100;96254.64;;;;
2020/11/04 05:52:58;;;;;;;8.000001;5.7;;;;;;;8.43;100;96263.36;;;;
2020/11/04 05:54:08;;;;;;;8.000001;5.7;;;;;;;8.43;100;96263.36;;;;
2020/11/04 05:55:09;;;;;;;8.000001;5.7;;;;;;;8.43;100;96263.36;;;;
2020/11/04 05:56:11;;;;;;;8.000001;5.7;;;;;;;8.43;100;96263.36;;;;
2020/11/04 05:57:12;;;;;;;8.000001;5.7;;;;;;;8.43;100;96263.36;;;;
2020/11/04 05:58:14;;;;;;;8.000001;5.7;;;;;;;8.43;100;96263.36;;;;
2020/11/04 05:59:14;;;;;;;8.000001;5.7;;;;;;;8.43;100;96263.36;;;;
2020/11/04 06:00:18;;;;;;;8.000001;5.7;;;;;;;8.43;100;96263.36;;;;
2020/11/04 06:01:19;;;;;;;8.000001;5.7;;;;;;;8.43;100;96263.36;;;;
2020/11/04 06:02:28;;;;;;;8.000001;5.7;;;;;;;8.43;100;96263.36;;;;
2020/11/04 06:03:35;;;;;;;8.000001;5.7;;;;;;;8.43;100;96263.36;;;;
2020/11/04 06:04:39;;;;;;;8.150002;5.8;;;;;;;8.41;100;96260.54;;;;
2020/11/04 06:05:41;;;;;;;8.150002;5.8;;;;;;;8.41;100;96260.54;;;;
2020/11/04 06:06:41;;;;;;;8.150002;5.8;;;;;;;8.41;100;96260.54;;;;
2020/11/04 06:07:42;;;;;;;8.150002;5.8;;;;;;;8.41;100;96260.54;;;;
2020/11/04 06:08:44;;;;;;;8.150002;5.8;;;;;;;8.41;100;96260.54;;;;